Time;durP1;ratioP1;P1;durP2;ratioP2;P2;SDS_P1;SDS_P2;PMS_P1;PMS_P2;Temp;Humidity;BMP_temperature;BMP_pressure;BME280_temperature;BME280_humidity;BME280_pressure;Samples;Min_cycle;Max_cycle;Signal;HPM_P1;HPM_P2
2022/11/26 00:00:25;;;;;;;40.72;23.85;;;;;;;4.14;100.00;99804.03;5013073;28;20048;-76
2022/11/26 00:02:51;;;;;;;29.25;15.35;;;;;;;4.08;100.00;99791.16;5006105;28;20026;-76
2022/11/26 00:05:17;;;;;;;27.13;13.80;;;;;;;4.23;100.00;99805.03;5012020;28;20024;-77
2022/11/26 00:07:51;;;;;;;30.13;17.13;;;;;;;4.14;100.00;99779.94;5011082;28;20026;-75
2022/11/26 00:10:19;;;;;;;26.27;10.85;;;;;;;4.25;100.00;99803.06;5001975;28;20033;-76
2022/11/26 00:12:45;;;;;;;28.65;12.27;;;;;;;4.25;100.00;99809.25;5008502;28;20051;-76
2022/11/26 00:15:14;;;;;;;27.65;11.95;;;;;;;4.25;100.00;99811.94;5006696;28;20507;-77
2022/11/26 00:17:40;;;;;;;20.95;9.73;;;;;;;4.14;100.00;99791.47;5010602;28;20026;-76
2022/11/26 00:20:06;;;;;;;19.70;9.95;;;;;;;4.23;100.00;99797.00;5006170;28;20029;-76
2022/11/26 00:22:38;;;;;;;29.92;10.38;;;;;;;4.27;100.00;99822.50;5004433;28;20088;-76
2022/11/26 00:25:04;;;;;;;23.40;9.88;;;;;;;4.14;100.00;99804.88;5008346;28;20047;-75
2022/11/26 00:27:30;;;;;;;22.27;9.63;;;;;;;4.05;100.00;99808.34;5006769;28;20025;-77
2022/11/26 00:29:55;;;;;;;27.98;9.55;;;;;;;4.06;100.00;99811.88;5009296;28;20499;-77
2022/11/26 00:32:23;;;;;;;26.77;9.52;;;;;;;4.20;100.00;99827.56;5010843;28;20093;-79
2022/11/26 00:34:49;;;;;;;21.08;9.60;;;;;;;4.17;100.00;99827.84;5003333;28;20033;-79
2022/11/26 00:37:21;;;;;;;28.15;9.98;;;;;;;4.25;100.00;99825.31;5013190;28;20030;-78
2022/11/26 00:39:47;;;;;;;35.83;8.98;;;;;;;4.27;100.00;99818.00;5011650;28;20129;-74
2022/11/26 00:42:12;;;;;;;23.33;8.82;;;;;;;4.47;100.00;99831.44;5008721;28;20022;-77
2022/11/26 00:44:37;;;;;;;20.55;8.15;;;;;;;4.42;100.00;99825.63;5011185;28;20037;-76
2022/11/26 00:47:03;;;;;;;18.35;6.85;;;;;;;4.41;100.00;99819.44;5007950;28;20029;-76
2022/11/26 00:49:28;;;;;;;19.55;7.18;;;;;;;4.54;100.00;99841.44;5004530;28;20498;-77
2022/11/26 00:51:53;;;;;;;19.98;7.85;;;;;;;4.52;100.00;99830.00;5008024;28;20029;-76
2022/11/26 00:54:20;;;;;;;22.55;6.65;;;;;;;4.59;100.00;99849.06;5011203;28;20025;-76
2022/11/26 00:56:47;;;;;;;16.88;7.80;;;;;;;4.65;100.00;99842.31;5013678;28;20262;-76
2022/11/26 00:59:16;;;;;;;16.00;8.45;;;;;;;4.70;100.00;99856.13;5009383;28;20116;-76
2022/11/26 01:01:42;;;;;;;17.65;8.55;;;;;;;4.67;100.00;99876.03;5009347;28;20038;-76
2022/11/26 01:04:07;;;;;;;20.05;8.73;;;;;;;4.24;100.00;99823.63;5011989;28;20036;-76
2022/11/26 01:06:36;;;;;;;18.60;8.73;;;;;;;4.50;100.00;99888.25;5011565;28;20028;-76
2022/11/26 01:09:03;;;;;;;21.73;8.05;;;;;;;4.41;100.00;99883.75;5009181;28;20030;-75
2022/11/26 01:11:29;;;;;;;25.92;8.30;;;;;;;4.32;100.00;99868.47;5010165;28;20113;-76
2022/11/26 01:13:54;;;;;;;21.05;8.18;;;;;;;4.51;100.00;99895.31;5002254;28;20105;-75
2022/11/26 01:16:23;;;;;;;22.08;7.60;;;;;;;4.52;100.00;99891.66;5012258;28;20506;-77
2022/11/26 01:18:50;;;;;;;26.05;8.00;;;;;;;4.60;100.00;99893.66;5010179;28;20046;-76
2022/11/26 01:21:16;;;;;;;16.55;7.10;;;;;;;4.66;100.00;99897.59;5007060;28;20050;-75
2022/11/26 01:23:42;;;;;;;10.60;6.45;;;;;;;4.52;100.00;99869.38;5012418;28;20025;-77
2022/11/26 01:26:16;;;;;;;24.95;7.13;;;;;;;4.82;100.00;99903.25;5012242;28;20022;-77
2022/11/26 01:28:42;;;;;;;26.67;7.15;;;;;;;4.79;100.00;99895.50;4998604;28;20038;-76
2022/11/26 01:31:14;;;;;;;17.38;6.50;;;;;;;4.80;100.00;99891.84;4995357;28;20030;-77
2022/11/26 01:33:40;;;;;;;14.60;5.85;;;;;;;4.92;100.00;99895.22;5008327;28;20030;-78
2022/11/26 01:36:17;;;;;;;21.00;6.00;;;;;;;4.99;100.00;99902.56;5005878;28;20567;-77
2022/11/26 01:38:42;;;;;;;19.25;6.07;;;;;;;4.98;100.00;99900.91;5005322;28;20084;-77
2022/11/26 01:41:19;;;;;;;21.98;6.35;;;;;;;5.09;100.00;99925.88;5017248;28;20022;-77
2022/11/26 01:43:46;;;;;;;17.55;5.78;;;;;;;5.02;100.00;99914.84;5009834;28;20121;-77
2022/11/26 01:46:18;;;;;;;13.13;5.07;;;;;;;5.09;100.00;99917.84;5013917;28;20029;-75
2022/11/26 01:48:45;;;;;;;22.38;7.10;;;;;;;5.13;100.00;99932.66;5009442;28;20036;-76
2022/11/26 01:51:12;;;;;;;13.48;7.68;;;;;;;4.96;100.00;99908.22;5009792;28;20105;-75
2022/11/26 01:53:43;;;;;;;15.95;6.65;;;;;;;4.96;100.00;99923.47;5009555;28;20033;-74
2022/11/26 01:56:32;;;;;;;18.45;8.23;;;;;;;4.87;100.00;99933.19;5012137;28;20021;-75
2022/11/26 01:59:23;;;;;;;13.40;7.15;;;;;;;4.89;100.00;99915.13;5007110;28;20018;-73
2022/11/26 02:01:51;;;;;;;23.63;9.52;;;;;;;4.82;100.00;99913.97;5006461;28;20022;-73
2022/11/26 02:04:29;;;;;;;18.00;8.95;;;;;;;4.83;100.00;99911.19;5002389;28;20112;-73
2022/11/26 02:06:55;;;;;;;28.15;9.02;;;;;;;4.79;100.00;99904.41;5011216;28;20105;-73
2022/11/26 02:09:21;;;;;;;30.02;9.15;;;;;;;4.74;100.00;99908.47;5010737;28;20014;-74
2022/11/26 02:11:47;;;;;;;25.13;8.98;;;;;;;4.74;100.00;99916.50;5004336;28;20068;-74
2022/11/26 02:14:32;;;;;;;18.40;9.20;;;;;;;4.82;100.00;99922.91;5012375;28;20425;-73
2022/11/26 02:17:07;;;;;;;17.50;8.43;;;;;;;4.76;100.00;99939.53;5007428;28;20022;-73
2022/11/26 02:20:10;;;;;;;17.23;8.07;;;;;;;4.71;100.00;99932.88;5009745;28;20029;-74
2022/11/26 02:22:53;;;;;;;20.40;8.55;;;;;;;4.64;100.00;99934.41;5000569;28;20061;-74
2022/11/26 02:25:41;;;;;;;25.40;11.05;;;;;;;4.63;100.00;99933.56;5004694;28;20105;-73
2022/11/26 02:28:22;;;;;;;23.02;11.98;;;;;;;4.53;100.00;99936.25;5006368;28;20030;-72
2022/11/26 02:30:55;;;;;;;20.13;10.85;;;;;;;4.44;100.00;99942.41;5009878;28;20069;-74
2022/11/26 02:33:27;;;;;;;22.17;9.82;;;;;;;4.37;100.00;99935.88;5009201;28;20018;-73
2022/11/26 02:36:03;;;;;;;16.30;8.88;;;;;;;4.44;100.00;99949.59;5001169;28;20489;-72
2022/11/26 02:38:29;;;;;;;15.25;7.53;;;;;;;4.43;100.00;99956.81;5008081;28;20489;-73
2022/11/26 02:40:55;;;;;;;16.92;8.90;;;;;;;4.37;100.00;99950.13;5009322;28;20025;-74
2022/11/26 02:43:22;;;;;;;16.08;7.47;;;;;;;4.48;100.00;99970.63;5010424;28;20030;-73
2022/11/26 02:45:53;;;;;;;18.42;8.50;;;;;;;4.74;100.00;99975.50;5006987;28;20048;-73
2022/11/26 02:48:23;;;;;;;18.42;8.13;;;;;;;4.66;100.00;99986.06;5005885;28;20026;-73
2022/11/26 02:50:55;;;;;;;15.20;8.57;;;;;;;4.63;100.00;99989.84;5008254;28;20383;-73
2022/11/26 02:53:24;;;;;;;13.85;8.07;;;;;;;4.56;100.00;99984.22;5008429;28;20496;-72
2022/11/26 02:55:59;;;;;;;20.00;7.75;;;;;;;4.50;100.00;99982.03;5001318;28;20443;-73
2022/11/26 02:58:25;;;;;;;20.23;7.75;;;;;;;4.53;100.00;99980.94;5011193;28;20044;-73
2022/11/26 03:00:53;;;;;;;14.18;7.57;;;;;;;4.58;100.00;99992.09;5010464;28;20026;-74
2022/11/26 03:03:26;;;;;;;19.35;8.05;;;;;;;4.59;100.00;99991.97;5009098;28;20502;-74
2022/11/26 03:05:55;;;;;;;14.23;7.57;;;;;;;4.79;100.00;100016.16;5010969;28;20038;-72
2022/11/26 03:08:21;;;;;;;20.50;8.38;;;;;;;4.70;100.00;100000.91;5009122;28;20022;-73
2022/11/26 03:10:46;;;;;;;18.80;7.85;;;;;;;4.80;100.00;100012.50;5008392;28;20404;-74
2022/11/26 03:13:12;;;;;;;20.33;7.70;;;;;;;4.63;100.00;99984.50;5007419;28;20033;-73
2022/11/26 03:15:37;;;;;;;17.17;8.52;;;;;;;4.81;100.00;100014.19;5003972;28;20033;-73
2022/11/26 03:18:03;;;;;;;22.13;7.82;;;;;;;4.83;100.00;100005.03;5007844;28;20481;-74
2022/11/26 03:20:28;;;;;;;20.27;8.20;;;;;;;4.79;100.00;100005.41;5006107;28;20032;-74
2022/11/26 03:22:53;;;;;;;17.48;7.75;;;;;;;4.65;100.00;99989.72;5007290;28;20037;-73
2022/11/26 03:25:18;;;;;;;27.23;7.53;;;;;;;4.69;100.00;99994.69;5004737;28;20029;-75
2022/11/26 03:27:44;;;;;;;14.50;7.15;;;;;;;4.76;100.00;100011.06;5011721;28;20100;-74
2022/11/26 03:30:10;;;;;;;19.50;7.50;;;;;;;4.82;100.00;100015.88;5007094;28;20030;-73
2022/11/26 03:32:36;;;;;;;16.60;7.47;;;;;;;4.73;100.00;100000.63;5007419;28;20033;-74
2022/11/26 03:35:01;;;;;;;16.60;7.93;;;;;;;4.80;100.00;100007.13;5007367;28;20473;-73
2022/11/26 03:37:26;;;;;;;18.73;7.45;;;;;;;4.76;100.00;100006.53;5010349;28;20029;-73
2022/11/26 03:39:52;;;;;;;17.33;6.82;;;;;;;4.84;100.00;100009.38;5007477;28;20116;-73
2022/11/26 03:42:17;;;;;;;18.58;6.03;;;;;;;4.86;100.00;100011.09;5004563;28;20075;-74
2022/11/26 03:48:05;;;;;;;15.85;6.10;;;;;;;4.71;100.00;100021.34;5007994;28;20052;-73
2022/11/26 03:50:30;;;;;;;13.43;6.40;;;;;;;4.61;100.00;100022.16;5002411;28;20025;-74
2022/11/26 03:52:55;;;;;;;11.52;6.63;;;;;;;4.58;100.00;100025.13;5009106;28;20030;-74
2022/11/26 03:55:20;;;;;;;11.77;6.20;;;;;;;4.41;100.00;100022.22;5004242;28;20109;-72
2022/11/26 03:57:46;;;;;;;14.40;6.65;;;;;;;4.19;100.00;100018.72;5004309;28;20021;-72
2022/11/26 04:00:11;;;;;;;12.52;6.57;;;;;;;3.95;100.00;100017.16;5006131;28;20080;-73
2022/11/26 04:02:37;;;;;;;13.98;6.25;;;;;;;3.97;100.00;100025.06;5008813;28;20057;-72
2022/11/26 04:05:03;;;;;;;18.23;7.38;;;;;;;3.93;100.00;100037.03;5010294;28;20076;-75
2022/11/26 04:07:28;;;;;;;18.55;6.88;;;;;;;3.79;100.00;100014.09;5008311;28;20025;-73
2022/11/26 04:09:53;;;;;;;14.43;6.35;;;;;;;3.71;100.00;100020.09;5015542;28;20029;-73
2022/11/26 04:12:19;;;;;;;15.70;6.85;;;;;;;3.71;100.00;100037.97;5012300;28;20099;-73
2022/11/26 04:14:44;;;;;;;16.95;7.15;;;;;;;3.74;100.00;100040.41;5000414;28;20029;-73
2022/11/26 04:17:10;;;;;;;15.77;7.38;;;;;;;3.74;100.00;100043.06;5011679;28;20033;-74
2022/11/26 04:19:36;;;;;;;20.60;7.85;;;;;;;3.80;100.00;100042.56;5012061;28;20034;-73
2022/11/26 04:22:01;;;;;;;23.23;8.00;;;;;;;3.71;100.00;100020.09;5011772;28;20021;-72
2022/11/26 04:24:26;;;;;;;21.65;9.07;;;;;;;3.76;100.00;100026.91;5006114;28;20022;-75
2022/11/26 04:26:52;;;;;;;21.48;8.88;;;;;;;3.65;100.00;100020.63;5004902;28;20472;-73
2022/11/26 04:29:17;;;;;;;24.48;9.60;;;;;;;3.37;100.00;99981.09;5013052;28;20077;-73
2022/11/26 04:31:42;;;;;;;22.98;11.55;;;;;;;3.68;100.00;100039.09;5009237;28;20113;-73
2022/11/26 04:34:08;;;;;;;24.33;14.13;;;;;;;3.48;100.00;100030.06;5010224;28;20029;-72
2022/11/26 04:36:33;;;;;;;23.42;11.80;;;;;;;3.47;100.00;100028.34;5000864;28;20053;-73
2022/11/26 04:38:58;;;;;;;24.33;12.18;;;;;;;3.33;100.00;100041.16;5013342;28;20029;-74
2022/11/26 04:41:24;;;;;;;26.35;11.23;;;;;;;3.16;100.00;100051.44;5010428;28;20057;-73
2022/11/26 04:43:49;;;;;;;22.85;9.85;;;;;;;2.93;100.00;100039.94;5007082;28;20026;-75
2022/11/26 04:46:15;;;;;;;23.05;12.48;;;;;;;3.06;100.00;100048.66;5010113;28;20076;-73
2022/11/26 04:48:40;;;;;;;23.58;11.90;;;;;;;2.95;100.00;100035.31;5007852;28;20034;-73
2022/11/26 04:51:05;;;;;;;24.23;12.88;;;;;;;2.95;100.00;100056.69;5011814;28;20038;-73
2022/11/26 04:53:31;;;;;;;20.80;10.57;;;;;;;2.78;100.00;100035.84;5011807;28;20025;-73
2022/11/26 04:55:56;;;;;;;30.35;12.38;;;;;;;3.04;100.00;100039.94;5005760;28;20149;-73
2022/11/26 04:58:22;;;;;;;26.55;12.43;;;;;;;3.35;100.00;100049.91;5010411;28;20452;-72
2022/11/26 05:00:47;;;;;;;21.83;12.25;;;;;;;3.50;100.00;100059.34;5008393;28;20087;-73
2022/11/26 05:03:13;;;;;;;27.30;12.65;;;;;;;3.45;100.00;100041.00;5012072;28;20026;-72
2022/11/26 05:05:39;;;;;;;28.15;12.05;;;;;;;3.53;100.00;100058.25;5010314;28;20017;-72
2022/11/26 05:08:05;;;;;;;26.88;12.55;;;;;;;3.36;100.00;100051.63;5003629;28;20034;-73
2022/11/26 05:10:30;;;;;;;19.95;11.00;;;;;;;3.28;100.00;100061.13;5010418;28;20022;-73
2022/11/26 05:30:11;;;;;;;29.20;11.85;;;;;;;2.91;100.00;100075.78;5029600;28;20056;-80
2022/11/26 05:33:00;;;;;;;47.33;13.15;;;;;;;2.82;100.00;100059.50;5026926;28;20050;-82
2022/11/26 05:35:25;;;;;;;37.83;11.48;;;;;;;2.80;100.00;100065.94;5017075;28;20057;-80
2022/11/26 05:37:51;;;;;;;29.77;10.35;;;;;;;2.80;100.00;100066.81;5011528;28;20019;-79
2022/11/26 05:40:16;;;;;;;28.98;11.90;;;;;;;2.73;100.00;100060.25;5016467;28;20472;-78
2022/11/26 05:42:42;;;;;;;32.10;10.70;;;;;;;2.62;100.00;100069.13;5020386;28;20026;-80
2022/11/26 05:45:10;;;;;;;40.70;10.68;;;;;;;2.68;100.00;100093.66;5019589;28;20052;-81
2022/11/26 05:47:35;;;;;;;31.67;11.27;;;;;;;2.56;100.00;100060.72;5019934;28;20082;-79
2022/11/26 05:50:01;;;;;;;26.70;9.68;;;;;;;2.36;100.00;100049.81;5016765;28;20026;-82
2022/11/26 05:52:26;;;;;;;17.42;8.15;;;;;;;2.40;100.00;100079.78;5017105;28;20508;-79
2022/11/26 05:54:52;;;;;;;22.65;8.95;;;;;;;2.37;100.00;100096.91;5017448;28;20018;-80
2022/11/26 05:57:18;;;;;;;16.15;7.15;;;;;;;2.18;100.00;100086.78;5016220;28;20456;-80
2022/11/26 05:59:46;;;;;;;18.35;7.38;;;;;;;2.21;100.00;100090.22;5014675;28;20100;-74
2022/11/26 06:02:12;;;;;;;18.30;9.50;;;;;;;2.29;100.00;100085.97;5012832;28;20523;-75
2022/11/26 06:04:37;;;;;;;20.30;10.00;;;;;;;2.71;100.00;100117.47;5013193;28;20030;-79
2022/11/26 06:07:02;;;;;;;14.15;7.68;;;;;;;2.51;100.00;100073.59;5025001;28;20062;-80
2022/11/26 06:09:28;;;;;;;27.23;7.68;;;;;;;2.58;100.00;100082.84;5029461;28;20018;-80
2022/11/26 06:11:53;;;;;;;19.50;6.85;;;;;;;2.64;100.00;100103.72;5028529;28;20026;-72
2022/11/26 06:14:18;;;;;;;20.65;6.97;;;;;;;2.69;100.00;100120.25;5010583;28;20044;-72
2022/11/26 06:17:07;;;;;;;15.05;7.25;;;;;;;2.68;100.00;100123.06;5014509;28;20025;-79
2022/11/26 06:19:49;;;;;;;19.58;8.02;;;;;;;2.54;100.00;100103.63;5014136;28;20049;-82
2022/11/26 06:22:14;;;;;;;12.23;6.32;;;;;;;2.49;100.00;100086.22;5020536;28;20037;-85
2022/11/26 06:24:39;;;;;;;10.27;6.10;;;;;;;2.45;100.00;100084.78;5012399;28;20034;-82
2022/11/26 06:27:04;;;;;;;10.98;6.13;;;;;;;2.85;100.00;100123.41;5015809;28;20033;-72
2022/11/26 06:29:30;;;;;;;12.75;6.20;;;;;;;2.91;100.00;100135.47;5007675;28;20034;-72
2022/11/26 06:31:55;;;;;;;9.02;6.10;;;;;;;2.95;100.00;100118.19;5012360;28;20881;-81
2022/11/26 06:34:21;;;;;;;10.40;6.32;;;;;;;3.17;100.00;100127.16;5009585;28;20021;-77
2022/11/26 06:36:46;;;;;;;10.90;6.65;;;;;;;3.17;100.00;100133.38;5010129;28;20029;-76
2022/11/26 06:39:11;;;;;;;11.63;6.35;;;;;;;3.25;100.00;100117.56;5008251;28;20117;-76
2022/11/26 06:41:37;;;;;;;13.10;6.80;;;;;;;3.27;100.00;100122.75;5011821;28;20171;-74
2022/11/26 06:44:03;;;;;;;11.90;6.55;;;;;;;3.39;100.00;100131.63;5005778;28;20476;-74
2022/11/26 06:46:28;;;;;;;15.00;6.82;;;;;;;3.42;100.00;100126.03;5009771;28;20042;-74
2022/11/26 06:48:53;;;;;;;11.13;6.70;;;;;;;3.41;100.00;100119.84;4998250;28;20481;-74
2022/11/26 06:51:20;;;;;;;11.32;7.03;;;;;;;3.58;100.00;100147.88;5009440;28;20025;-78
2022/11/26 06:53:49;;;;;;;11.30;6.45;;;;;;;3.56;100.00;100144.47;5011283;28;20026;-79
2022/11/26 06:56:15;;;;;;;18.70;6.88;;;;;;;3.69;100.00;100166.59;5012606;28;20033;-70
2022/11/26 06:58:41;;;;;;;11.52;6.55;;;;;;;3.68;100.00;100146.16;5015365;28;20037;-72
2022/11/26 07:01:11;;;;;;;11.48;6.55;;;;;;;3.79;100.00;100166.66;5015119;28;20025;-72
2022/11/26 07:03:37;;;;;;;12.00;7.15;;;;;;;3.82;100.00;100154.88;5013541;28;20573;-72
2022/11/26 07:06:02;;;;;;;9.93;6.38;;;;;;;3.82;100.00;100162.91;5014162;28;20029;-72
2022/11/26 07:08:28;;;;;;;20.52;6.82;;;;;;;3.91;100.00;100178.22;5011882;28;20058;-72
2022/11/26 07:10:53;;;;;;;17.67;6.68;;;;;;;3.98;100.00;100181.22;5014307;28;20397;-71
2022/11/26 07:13:19;;;;;;;14.77;7.38;;;;;;;3.90;100.00;100158.63;5008121;28;20050;-72
2022/11/26 07:15:44;;;;;;;12.07;7.05;;;;;;;4.05;100.00;100188.63;5011272;28;20125;-72
2022/11/26 07:18:09;;;;;;;15.48;6.50;;;;;;;4.10;100.00;100186.41;5011763;28;20512;-72
2022/11/26 07:20:36;;;;;;;11.68;6.65;;;;;;;4.25;100.00;100194.16;5012663;28;20064;-74
2022/11/26 07:23:03;;;;;;;12.95;9.65;;;;;;;4.24;100.00;100197.78;5010762;28;20030;-73
2022/11/26 07:25:28;;;;;;;16.63;9.38;;;;;;;4.08;100.00;100188.34;5004245;28;20510;-73
2022/11/26 07:27:54;;;;;;;11.43;7.03;;;;;;;4.27;100.00;100205.56;5004720;28;20034;-74
2022/11/26 07:30:19;;;;;;;12.45;7.18;;;;;;;4.26;100.00;100196.69;5008394;28;20057;-74
2022/11/26 07:32:45;;;;;;;11.25;6.07;;;;;;;4.29;100.00;100208.97;5009000;28;20101;-72
2022/11/26 07:35:10;;;;;;;11.93;6.63;;;;;;;4.33;100.00;100216.63;5007816;28;20026;-75
2022/11/26 07:37:35;;;;;;;12.10;6.70;;;;;;;4.41;100.00;100232.06;5008653;28;20049;-74
2022/11/26 07:40:01;;;;;;;13.40;6.18;;;;;;;4.54;100.00;100227.38;5004236;28;20050;-72
2022/11/26 07:42:29;;;;;;;11.85;6.30;;;;;;;4.72;100.00;100245.56;5007220;28;20185;-71
2022/11/26 07:44:55;;;;;;;10.63;6.20;;;;;;;4.78;100.00;100234.31;5011691;28;20050;-72
2022/11/26 07:47:20;;;;;;;17.15;6.97;;;;;;;5.01;100.00;100257.31;5013629;28;20069;-72
2022/11/26 07:49:45;;;;;;;11.60;6.05;;;;;;;4.96;100.00;100242.63;5009949;28;20034;-77
2022/11/26 07:52:11;;;;;;;15.48;6.00;;;;;;;5.02;100.00;100240.25;5015223;28;20026;-77
2022/11/26 07:54:36;;;;;;;14.00;6.55;;;;;;;5.13;100.00;100249.19;5010650;28;20014;-76
2022/11/26 07:57:02;;;;;;;12.68;6.65;;;;;;;5.16;100.00;100248.91;5011538;28;20044;-77
2022/11/26 07:59:27;;;;;;;9.63;5.47;;;;;;;5.11;100.00;100252.03;5012916;28;20026;-76
2022/11/26 08:01:52;;;;;;;16.48;6.97;;;;;;;5.18;100.00;100252.34;5016896;28;20049;-76
2022/11/26 08:04:17;;;;;;;18.40;6.90;;;;;;;5.21;100.00;100235.97;5014777;28;20029;-78
2022/11/26 08:06:43;;;;;;;15.73;8.27;;;;;;;5.36;100.00;100248.03;5005448;28;20511;-71
2022/11/26 08:09:09;;;;;;;19.55;10.90;;;;;;;5.25;100.00;100234.72;5014675;28;20434;-72
2022/11/26 08:11:34;;;;;;;18.27;9.50;;;;;;;5.47;100.00;100265.88;5016728;28;20041;-71
2022/11/26 08:14:05;;;;;;;23.33;10.25;;;;;;;5.37;100.00;100256.94;5015263;28;20025;-71
2022/11/26 08:16:31;;;;;;;23.77;11.40;;;;;;;5.32;100.00;100256.50;5009172;28;20040;-71
2022/11/26 08:19:01;;;;;;;21.10;10.95;;;;;;;5.27;100.00;100257.75;5014147;28;20034;-77
2022/11/26 08:21:28;;;;;;;21.15;10.48;;;;;;;5.24;100.00;100246.44;5018647;28;20026;-80
2022/11/26 08:23:54;;;;;;;22.17;11.25;;;;;;;5.22;100.00;100237.69;5018155;28;20021;-81
2022/11/26 08:26:20;;;;;;;22.05;11.95;;;;;;;5.36;100.00;100234.63;5017813;28;20034;-80
2022/11/26 08:28:46;;;;;;;19.63;12.13;;;;;;;5.58;100.00;100248.84;5016966;28;20028;-80
2022/11/26 08:31:14;;;;;;;22.80;10.15;;;;;;;5.81;100.00;100254.84;5006735;28;20034;-82
2022/11/26 08:33:39;;;;;;;22.88;10.45;;;;;;;5.94;100.00;100250.09;5013547;28;20076;-80
2022/11/26 08:36:06;;;;;;;17.25;9.13;;;;;;;5.85;100.00;100224.91;5008681;28;20294;-80
2022/11/26 08:38:31;;;;;;;17.60;8.65;;;;;;;5.90;100.00;100237.94;5014922;28;20022;-83
2022/11/26 08:41:00;;;;;;;15.98;9.25;;;;;;;5.93;100.00;100243.00;5014873;28;20082;-80
2022/11/26 08:43:26;;;;;;;15.18;8.85;;;;;;;6.01;100.00;100242.34;5016563;28;20112;-80
2022/11/26 08:45:56;;;;;;;22.58;9.40;;;;;;;6.23;100.00;100243.94;5014642;28;20029;-76
2022/11/26 08:48:25;;;;;;;23.77;9.70;;;;;;;6.36;100.00;100241.81;5017074;28;20021;-77
2022/11/26 08:50:55;;;;;;;24.38;10.68;;;;;;;6.38;100.00;100226.41;5014071;28;20045;-79
2022/11/26 08:53:20;;;;;;;28.67;12.77;;;;;;;6.83;100.00;100217.72;5017486;28;20749;-78
2022/11/26 08:55:45;;;;;;;21.92;11.30;;;;;;;7.12;100.00;100217.66;5013180;28;20029;-79
2022/11/26 08:58:11;;;;;;;20.75;9.50;;;;;;;7.33;100.00;100205.81;5011877;28;20022;-82
2022/11/26 09:00:36;;;;;;;14.68;7.80;;;;;;;7.60;100.00;100224.72;5011856;28;20026;-82
2022/11/26 09:03:02;;;;;;;17.83;8.10;;;;;;;7.49;100.00;100207.88;5018157;28;20038;-81
2022/11/26 09:05:27;;;;;;;15.23;7.20;;;;;;;7.56;100.00;100190.97;5009686;28;20033;-79
2022/11/26 09:07:53;;;;;;;14.70;7.78;;;;;;;8.16;100.00;100201.22;5016576;28;20201;-80
2022/11/26 09:10:18;;;;;;;12.30;6.38;;;;;;;10.61;100.00;100176.44;5008421;28;20036;-80
2022/11/26 09:12:44;;;;;;;9.55;5.40;;;;;;;13.16;100.00;100164.03;5016884;28;20030;-80
2022/11/26 09:15:09;;;;;;;13.63;4.45;;;;;;;16.33;100.00;100184.34;5012513;28;20022;-78
2022/11/26 09:17:34;;;;;;;12.10;4.68;;;;;;;18.13;77.78;100176.72;5014277;28;20412;-78
2022/11/26 09:20:00;;;;;;;10.40;4.55;;;;;;;17.36;74.29;100170.25;5013440;28;20061;-78
2022/11/26 09:22:25;;;;;;;12.02;5.03;;;;;;;17.76;73.00;100140.84;5013218;28;20108;-78
2022/11/26 09:24:51;;;;;;;17.20;5.90;;;;;;;17.55;71.45;100163.88;5015798;28;20116;-78
2022/11/26 09:27:16;;;;;;;16.40;5.25;;;;;;;17.16;69.98;100176.63;5008152;28;20052;-72
2022/11/26 09:29:41;;;;;;;10.45;4.60;;;;;;;18.21;69.14;100183.84;5000877;28;20026;-78
2022/11/26 09:32:08;;;;;;;15.07;4.45;;;;;;;18.45;64.81;100172.09;5015119;28;20549;-75
2022/11/26 09:34:34;;;;;;;16.38;4.25;;;;;;;20.02;59.92;100182.84;5015953;28;20503;-79
2022/11/26 09:37:00;;;;;;;14.05;4.78;;;;;;;19.02;58.95;100082.44;5031766;28;20036;-80
2022/11/26 09:39:25;;;;;;;10.13;3.53;;;;;;;19.05;61.44;100147.81;5014544;28;20402;-79
2022/11/26 09:42:13;;;;;;;13.10;3.78;;;;;;;19.77;59.31;100179.34;5004443;28;20030;-78
2022/11/26 09:44:38;;;;;;;8.23;3.63;;;;;;;21.10;54.09;100185.66;5008559;28;20026;-77
2022/11/26 09:47:15;;;;;;;9.97;3.80;;;;;;;21.85;52.71;100198.63;5016455;28;20036;-72
2022/11/26 09:50:00;;;;;;;8.43;3.55;;;;;;;22.57;50.80;100197.31;5015707;28;20344;-80
2022/11/26 09:52:30;;;;;;;15.18;3.40;;;;;;;22.74;49.04;100198.16;5015219;28;20049;-77
2022/11/26 09:55:21;;;;;;;10.77;3.80;;;;;;;19.92;53.49;100199.84;5017189;28;20017;-75
2022/11/26 09:57:56;;;;;;;11.25;4.00;;;;;;;17.68;60.06;100207.66;5024064;28;20035;-77
2022/11/26 10:00:35;;;;;;;10.52;4.10;;;;;;;15.80;78.97;100222.38;5022246;28;20440;-76
2022/11/26 10:03:11;;;;;;;9.90;3.80;;;;;;;14.28;100.00;100206.44;5007401;28;20096;-77
2022/11/26 10:05:41;;;;;;;11.63;4.40;;;;;;;13.15;100.00;100208.50;5012056;28;20519;-77
2022/11/26 10:08:29;;;;;;;18.50;4.82;;;;;;;12.22;100.00;100207.78;5013146;28;20041;-77
2022/11/26 10:11:04;;;;;;;10.85;4.72;;;;;;;11.18;100.00;100209.69;5011095;28;20718;-72
2022/11/26 10:13:36;;;;;;;10.48;4.93;;;;;;;10.43;100.00;100209.09;5011176;28;20026;-74
2022/11/26 10:16:18;;;;;;;17.30;4.43;;;;;;;10.04;100.00;100206.97;5014314;28;20084;-73
2022/11/26 10:19:06;;;;;;;12.35;4.13;;;;;;;9.84;100.00;100220.75;5014305;28;20054;-73
2022/11/26 10:21:39;;;;;;;12.07;4.65;;;;;;;9.84;100.00;100214.50;5010632;28;20112;-72
2022/11/26 10:24:13;;;;;;;17.00;4.57;;;;;;;9.86;100.00;100231.41;5009453;28;20062;-76
2022/11/26 10:26:39;;;;;;;19.17;6.03;;;;;;;9.92;100.00;100222.66;5012827;28;20040;-74
2022/11/26 10:29:20;;;;;;;14.63;5.43;;;;;;;9.92;100.00;100225.34;5012971;28;20033;-75
2022/11/26 10:31:47;;;;;;;12.75;4.63;;;;;;;9.88;100.00;100207.78;5011597;28;20404;-72
2022/11/26 10:34:17;;;;;;;11.90;4.40;;;;;;;9.92;100.00;100214.53;5008986;28;20502;-74
2022/11/26 10:36:46;;;;;;;13.43;5.28;;;;;;;10.14;100.00;100212.22;5011445;28;20218;-74
2022/11/26 10:39:14;;;;;;;12.10;4.28;;;;;;;10.35;100.00;100198.25;5001366;28;20041;-73
2022/11/26 10:41:40;;;;;;;10.15;4.10;;;;;;;10.98;100.00;100200.28;5008756;28;20030;-74
2022/11/26 10:44:35;;;;;;;13.18;4.63;;;;;;;11.40;100.00;100202.72;5010374;28;20670;-74
2022/11/26 10:47:25;;;;;;;16.95;4.57;;;;;;;10.79;100.00;100217.72;5001636;28;20029;-73
2022/11/26 10:49:52;;;;;;;16.80;5.00;;;;;;;10.87;100.00;100192.50;5011234;28;20029;-72
2022/11/26 10:52:25;;;;;;;12.23;4.38;;;;;;;10.88;100.00;100191.50;5011473;28;20030;-73
2022/11/26 10:55:25;;;;;;;15.10;4.10;;;;;;;10.86;100.00;100207.06;5011205;28;20052;-72
2022/11/26 10:58:06;;;;;;;14.32;4.32;;;;;;;10.31;100.00;100203.16;5012191;28;20025;-71
2022/11/26 11:00:39;;;;;;;15.15;4.30;;;;;;;10.09;100.00;100199.22;5013742;28;20019;-74
2022/11/26 11:03:14;;;;;;;13.32;4.68;;;;;;;10.12;100.00;100206.16;5012485;28;20061;-72
2022/11/26 11:05:42;;;;;;;17.75;4.65;;;;;;;10.21;100.00;100195.16;5004955;28;20025;-73
2022/11/26 11:08:13;;;;;;;13.32;4.68;;;;;;;10.37;100.00;100198.94;5012533;28;20061;-73
2022/11/26 11:10:52;;;;;;;14.45;5.13;;;;;;;10.09;100.00;100193.81;5010988;28;20018;-73
2022/11/26 11:13:17;;;;;;;14.00;5.25;;;;;;;9.85;100.00;100181.94;5013911;28;20081;-74
2022/11/26 11:15:43;;;;;;;20.42;5.70;;;;;;;9.83;100.00;100162.31;5016852;28;20068;-73
2022/11/26 11:18:11;;;;;;;15.88;6.15;;;;;;;9.81;100.00;100183.25;5009312;28;20459;-76
2022/11/26 11:20:39;;;;;;;15.20;4.70;;;;;;;10.09;100.00;100183.00;5014402;28;20030;-74
2022/11/26 11:23:10;;;;;;;17.65;5.00;;;;;;;10.25;100.00;100185.72;5018151;28;20072;-71
2022/11/26 11:25:42;;;;;;;11.20;4.78;;;;;;;10.16;100.00;100167.78;5017579;28;20038;-72
2022/11/26 11:28:10;;;;;;;16.50;6.00;;;;;;;10.28;100.00;100179.16;5033002;28;20663;-72
2022/11/26 11:30:36;;;;;;;19.85;5.35;;;;;;;9.99;100.00;100187.69;5019721;28;20030;-72
2022/11/26 11:33:20;;;;;;;16.42;4.50;;;;;;;10.14;100.00;100185.19;5014591;28;20028;-72
2022/11/26 11:36:10;;;;;;;17.42;4.00;;;;;;;10.60;100.00;100189.13;5013213;28;20079;-70
2022/11/26 11:38:49;;;;;;;11.93;3.95;;;;;;;10.86;100.00;100188.13;5011256;28;20026;-73
2022/11/26 11:41:20;;;;;;;14.15;3.88;;;;;;;10.92;100.00;100179.28;5008042;28;20438;-71
2022/11/26 11:43:46;;;;;;;13.50;4.18;;;;;;;11.66;100.00;100173.63;5015897;28;20034;-74